createdAt,value
2018-07-02T00:00:11.575Z,13.61
2018-07-02T00:02:40.499Z,13.56
2018-07-02T00:05:09.740Z,13.58
2018-07-02T00:07:38.582Z,13.47
2018-07-02T00:10:09.543Z,13.38
2018-07-02T00:12:38.478Z,13.33
2018-07-02T00:15:07.389Z,13.31
2018-07-02T00:17:36.099Z,13.29
2018-07-02T00:20:05.895Z,13.20
2018-07-02T00:22:34.773Z,13.13
2018-07-02T00:25:03.617Z,13.14
2018-07-02T00:27:32.304Z,13.16
2018-07-02T00:30:01.216Z,13.15
2018-07-02T00:32:29.856Z,13.15
2018-07-02T00:34:58.671Z,13.16
2018-07-02T00:37:27.431Z,13.11
2018-07-02T00:39:56.092Z,13.08
2018-07-02T00:42:24.961Z,13.01
2018-07-02T00:44:53.585Z,12.93
2018-07-02T00:47:22.257Z,12.95
2018-07-02T00:49:51.412Z,13.01
2018-07-02T00:52:20.142Z,12.99
2018-07-02T00:54:49.592Z,12.91
2018-07-02T00:57:18.236Z,12.87
2018-07-02T00:59:46.844Z,12.86
2018-07-02T01:02:15.542Z,12.80
2018-07-02T01:04:44.134Z,12.76
2018-07-02T01:07:13.461Z,12.63
2018-07-02T01:09:42.200Z,12.63
2018-07-02T01:12:10.954Z,12.56
2018-07-02T01:14:40.677Z,12.66
2018-07-02T01:17:09.434Z,12.59
2018-07-02T01:19:38.166Z,12.60
2018-07-02T01:22:06.853Z,12.54
2018-07-02T01:24:35.463Z,12.58
2018-07-02T01:27:04.168Z,12.57
2018-07-02T01:29:32.885Z,12.48
2018-07-02T01:32:01.458Z,12.50
2018-07-02T01:34:30.135Z,12.45
2018-07-02T01:36:58.752Z,12.44
2018-07-02T01:39:27.528Z,12.32
2018-07-02T01:41:56.269Z,12.26
2018-07-02T01:44:25.009Z,12.21
2018-07-02T01:46:53.626Z,12.17
2018-07-02T01:49:22.441Z,12.14
2018-07-02T01:51:51.104Z,12.09
2018-07-02T01:54:19.741Z,12.15
2018-07-02T01:56:48.412Z,12.10
2018-07-02T01:59:17.052Z,12.05
2018-07-02T02:01:45.630Z,12.07
2018-07-02T02:04:14.263Z,11.95
2018-07-02T02:06:42.889Z,11.86
2018-07-02T02:09:12.063Z,11.86
2018-07-02T02:11:40.696Z,11.87
2018-07-02T02:14:09.469Z,11.80
2018-07-02T02:16:38.452Z,11.80
2018-07-02T02:19:07.576Z,11.78
2018-07-02T02:21:36.260Z,11.75
2018-07-02T02:24:04.917Z,11.75
2018-07-02T02:26:33.897Z,11.64
2018-07-02T02:29:02.470Z,11.57
2018-07-02T02:31:31.473Z,11.52
2018-07-02T02:34:00.153Z,11.55
2018-07-02T02:36:28.940Z,11.56
2018-07-02T02:38:57.661Z,11.60
2018-07-02T02:41:26.485Z,11.61
2018-07-02T02:43:55.236Z,11.60
2018-07-02T02:46:23.917Z,11.59
2018-07-02T02:48:52.646Z,11.52
2018-07-02T02:51:21.444Z,11.54
2018-07-02T02:53:50.099Z,11.59
2018-07-02T02:56:18.791Z,11.55
2018-07-02T02:58:47.429Z,11.42
2018-07-02T03:01:16.024Z,11.41
2018-07-02T03:03:44.837Z,11.44
2018-07-02T03:06:13.516Z,11.53
2018-07-02T03:08:42.225Z,11.54
2018-07-02T03:11:10.987Z,11.52
2018-07-02T03:13:39.759Z,11.35
2018-07-02T03:16:08.425Z,11.35
2018-07-02T03:18:37.250Z,11.35
2018-07-02T03:21:05.837Z,11.32
2018-07-02T03:23:35.713Z,11.37
2018-07-02T03:26:04.572Z,11.69
2018-07-02T03:28:33.304Z,11.95
2018-07-02T03:31:02.099Z,12.12
2018-07-02T03:33:30.792Z,12.39
2018-07-02T03:35:59.594Z,12.61
2018-07-02T03:38:28.416Z,12.81
2018-07-02T03:40:57.405Z,12.93
2018-07-02T03:43:26.120Z,13.08
2018-07-02T03:45:54.853Z,13.35
2018-07-02T03:48:23.530Z,13.65
2018-07-02T03:50:52.746Z,13.96
2018-07-02T03:53:21.567Z,14.11
2018-07-02T03:55:50.344Z,14.42
2018-07-02T03:58:19.281Z,14.58
2018-07-02T04:00:48.130Z,14.82
2018-07-02T04:03:17.021Z,15.02
2018-07-02T04:05:45.895Z,15.19
2018-07-02T04:08:14.620Z,15.30
2018-07-02T04:10:43.463Z,15.53
2018-07-02T04:13:12.242Z,15.72
2018-07-02T04:15:41.619Z,16.02
2018-07-02T04:18:10.367Z,16.32
2018-07-02T04:20:38.999Z,16.58
2018-07-02T04:23:07.722Z,17.46
2018-07-02T04:25:36.576Z,17.43
2018-07-02T04:28:05.302Z,18.31
2018-07-02T04:30:33.966Z,17.75
2018-07-02T04:33:02.890Z,18.18
2018-07-02T04:35:31.732Z,17.89
2018-07-02T04:38:00.962Z,18.52
2018-07-02T04:40:30.198Z,18.95
2018-07-02T04:42:58.940Z,18.86
2018-07-02T04:45:27.385Z,18.06
2018-07-02T04:47:56.244Z,18.07
2018-07-02T04:50:24.972Z,18.06
2018-07-02T04:52:53.758Z,18.00
2018-07-02T04:55:22.652Z,18.20
2018-07-02T04:57:51.477Z,18.29
2018-07-02T05:00:20.202Z,18.40
2018-07-02T05:02:49.188Z,18.71
2018-07-02T05:05:18.402Z,19.24
2018-07-02T05:07:47.377Z,19.40
2018-07-02T05:10:16.139Z,19.46
2018-07-02T05:12:44.854Z,19.50
2018-07-02T05:15:14.130Z,19.64
2018-07-02T05:17:42.938Z,19.82
2018-07-02T05:20:11.565Z,19.81
2018-07-02T05:22:40.396Z,19.78
2018-07-02T05:25:09.296Z,20.13
2018-07-02T05:27:44.631Z,20.37
2018-07-02T05:30:13.500Z,20.94
2018-07-02T05:32:42.046Z,20.90
2018-07-02T05:35:10.643Z,21.18
2018-07-02T05:37:40.265Z,20.77
2018-07-02T05:40:08.812Z,21.00
2018-07-02T05:42:37.456Z,21.08
2018-07-02T05:45:06.172Z,21.28
2018-07-02T05:47:34.728Z,21.74
2018-07-02T05:50:03.309Z,21.54
2018-07-02T05:52:31.896Z,21.73
2018-07-02T05:55:00.447Z,21.56
2018-07-02T05:57:29.008Z,21.96
2018-07-02T05:59:57.590Z,21.61
2018-07-02T06:02:26.137Z,22.06
2018-07-02T06:04:54.635Z,22.19
2018-07-02T06:07:23.180Z,22.52
2018-07-02T06:09:51.668Z,22.98
2018-07-02T06:12:20.202Z,22.75
2018-07-02T06:14:48.764Z,23.31
2018-07-02T06:17:17.294Z,24.18
2018-07-02T06:19:45.804Z,23.17
2018-07-02T06:22:14.429Z,23.35
2018-07-02T06:24:43.010Z,24.05
2018-07-02T06:27:11.614Z,24.76
2018-07-02T06:29:40.161Z,24.87
2018-07-02T06:32:08.678Z,24.93
2018-07-02T06:34:37.236Z,25.87
2018-07-02T06:37:05.800Z,27.18
2018-07-02T06:39:34.357Z,26.34
2018-07-02T06:42:02.902Z,25.35
2018-07-02T06:44:31.712Z,26.11
2018-07-02T06:47:00.227Z,25.60
2018-07-02T06:49:28.745Z,25.30
2018-07-02T06:51:57.283Z,26.49
2018-07-02T06:54:25.811Z,27.72
2018-07-02T06:56:54.442Z,27.89
2018-07-02T06:59:23.037Z,27.34
2018-07-02T07:01:51.590Z,26.95
2018-07-02T07:04:20.085Z,26.20
2018-07-02T07:06:48.656Z,26.13
2018-07-02T07:09:17.195Z,26.18
2018-07-02T07:11:45.730Z,25.68
2018-07-02T07:14:14.304Z,26.54
2018-07-02T07:16:42.843Z,28.10
2018-07-02T07:19:11.393Z,27.67
2018-07-02T07:21:39.950Z,27.18
2018-07-02T07:24:08.461Z,26.85
2018-07-02T07:26:36.988Z,27.11
2018-07-02T07:29:05.525Z,27.94
2018-07-02T07:31:34.030Z,28.41
2018-07-02T07:34:02.577Z,28.80
2018-07-02T07:36:31.145Z,28.60
2018-07-02T07:38:59.719Z,28.04
2018-07-02T07:41:28.267Z,28.99
2018-07-02T07:43:56.939Z,28.22
2018-07-02T07:46:25.986Z,30.00
2018-07-02T07:48:54.513Z,30.03
2018-07-02T07:51:23.100Z,29.03
2018-07-02T07:53:51.650Z,29.45
2018-07-02T07:56:20.303Z,29.08
2018-07-02T07:58:48.869Z,28.27
2018-07-02T08:01:17.363Z,28.60
2018-07-02T08:03:45.988Z,30.10
2018-07-02T08:06:14.500Z,29.24
2018-07-02T08:08:43.052Z,29.23
2018-07-02T08:11:11.591Z,29.42
2018-07-02T08:13:40.146Z,29.01
2018-07-02T08:16:08.683Z,29.24
2018-07-02T08:18:37.316Z,30.75
2018-07-02T08:21:05.885Z,30.83
2018-07-02T08:23:34.429Z,32.07
2018-07-02T08:26:02.969Z,32.72
2018-07-02T08:28:31.553Z,30.85
2018-07-02T08:31:00.087Z,31.30
2018-07-02T08:33:28.648Z,32.62
2018-07-02T08:35:57.226Z,30.42
2018-07-02T08:38:25.780Z,31.31
2018-07-02T08:40:54.305Z,29.52
2018-07-02T08:43:22.834Z,30.89
2018-07-02T08:45:51.374Z,30.66
2018-07-02T08:48:19.986Z,31.28
2018-07-02T08:50:48.531Z,31.44
2018-07-02T08:53:17.064Z,29.77
2018-07-02T08:55:45.572Z,30.44
2018-07-02T08:58:14.225Z,29.15
2018-07-02T09:00:42.781Z,29.77
2018-07-02T09:03:11.311Z,29.20
2018-07-02T09:05:39.861Z,28.84
2018-07-02T09:08:08.377Z,28.80
2018-07-02T09:10:36.889Z,28.14
2018-07-02T09:13:05.876Z,28.07
2018-07-02T09:15:34.428Z,27.95
2018-07-02T09:18:02.949Z,27.92
2018-07-02T09:20:31.530Z,28.46
2018-07-02T09:23:00.057Z,28.33
2018-07-02T09:25:28.573Z,28.76
2018-07-02T09:28:03.849Z,28.56
2018-07-02T09:30:32.368Z,28.93
2018-07-02T09:33:00.888Z,29.78
2018-07-02T09:35:29.451Z,28.90
2018-07-02T09:37:57.991Z,28.74
2018-07-02T09:40:26.519Z,27.96
2018-07-02T09:42:55.069Z,26.90
2018-07-02T09:45:23.589Z,27.45
2018-07-02T09:47:52.142Z,27.02
2018-07-02T09:50:20.723Z,30.03
2018-07-02T09:52:49.470Z,29.03
2018-07-02T09:55:18.298Z,28.01
2018-07-02T09:57:46.872Z,28.37
2018-07-02T10:00:15.447Z,28.32
2018-07-02T10:02:44.002Z,28.78
2018-07-02T10:05:12.540Z,28.51
2018-07-02T10:07:41.061Z,29.46
2018-07-02T10:10:09.595Z,28.78
2018-07-02T10:12:38.158Z,29.75
2018-07-02T10:15:06.929Z,29.65
2018-07-02T10:17:35.474Z,28.81
2018-07-02T10:20:04.085Z,28.52
2018-07-02T10:22:32.645Z,28.69
2018-07-02T10:25:01.192Z,29.98
2018-07-02T10:27:29.776Z,29.60
2018-07-02T10:29:58.305Z,28.73
2018-07-02T10:32:26.854Z,29.71
2018-07-02T10:34:55.424Z,30.66
2018-07-02T10:37:23.957Z,29.96
2018-07-02T10:39:52.517Z,30.80
2018-07-02T10:42:21.072Z,30.09
2018-07-02T10:44:49.597Z,29.27
2018-07-02T10:47:18.193Z,27.89
2018-07-02T10:49:46.784Z,28.23
2018-07-02T10:52:15.290Z,28.78
2018-07-02T10:54:43.825Z,28.64
2018-07-02T10:57:12.362Z,30.49
2018-07-02T10:59:40.918Z,30.42
2018-07-02T11:02:09.447Z,30.25
2018-07-02T11:04:38.112Z,30.54
2018-07-02T11:07:06.649Z,30.51
2018-07-02T11:09:35.201Z,30.10
2018-07-02T11:12:03.802Z,29.22
2018-07-02T11:14:32.317Z,29.59
2018-07-02T11:17:00.851Z,29.98
2018-07-02T11:19:29.920Z,28.04
2018-07-02T11:21:58.506Z,27.91
2018-07-02T11:24:27.039Z,26.83
2018-07-02T11:26:55.580Z,26.45
2018-07-02T11:29:24.106Z,26.58
2018-07-02T11:31:52.656Z,27.09
2018-07-02T11:34:21.285Z,27.55
2018-07-02T11:36:49.824Z,26.12
2018-07-02T11:39:18.364Z,24.94
2018-07-02T11:41:46.985Z,25.14
2018-07-02T11:44:15.610Z,25.54
2018-07-02T11:46:44.089Z,25.58
2018-07-02T11:49:12.654Z,25.47
2018-07-02T11:51:41.196Z,25.46
2018-07-02T11:54:09.778Z,24.69
2018-07-02T11:56:38.321Z,24.13
2018-07-02T11:59:06.898Z,24.33
2018-07-02T12:01:35.422Z,24.10
2018-07-02T12:04:03.978Z,23.70
2018-07-02T12:06:32.488Z,23.42
2018-07-02T12:09:01.025Z,23.24
2018-07-02T12:11:29.602Z,23.65
2018-07-02T12:13:58.246Z,23.63
2018-07-02T12:16:26.774Z,23.74
2018-07-02T12:18:55.314Z,23.43
2018-07-02T12:21:23.845Z,24.03
2018-07-02T12:23:52.390Z,23.72
2018-07-02T12:26:20.957Z,24.04
2018-07-02T12:28:49.491Z,24.25
2018-07-02T12:31:18.006Z,24.10
2018-07-02T12:33:46.568Z,24.35
2018-07-02T12:36:15.174Z,24.51
2018-07-02T12:38:43.782Z,24.42
2018-07-02T12:41:12.418Z,24.18
2018-07-02T12:43:40.948Z,23.82
2018-07-02T12:46:09.491Z,23.52
2018-07-02T12:48:38.035Z,23.78
2018-07-02T12:51:06.579Z,23.62
2018-07-02T12:53:35.100Z,23.66
2018-07-02T12:56:03.634Z,23.53
2018-07-02T12:58:32.186Z,23.50
2018-07-02T13:01:00.789Z,23.88
2018-07-02T13:03:29.353Z,23.68
2018-07-02T13:05:57.848Z,23.90
2018-07-02T13:08:26.378Z,24.09
2018-07-02T13:10:54.921Z,24.19
2018-07-02T13:13:23.433Z,24.31
2018-07-02T13:15:51.973Z,24.24
2018-07-02T13:18:20.570Z,24.53
2018-07-02T13:20:49.111Z,24.54
2018-07-02T13:23:17.654Z,24.32
2018-07-02T13:25:46.221Z,24.09
2018-07-02T13:28:14.756Z,24.43
2018-07-02T13:30:43.376Z,24.81
2018-07-02T13:33:11.970Z,24.97
2018-07-02T13:35:40.492Z,25.05
2018-07-02T13:38:09.042Z,24.59
2018-07-02T13:40:37.581Z,24.51
2018-07-02T13:43:06.090Z,24.51
2018-07-02T13:45:35.487Z,24.38
2018-07-02T13:48:04.021Z,24.49
2018-07-02T13:50:32.539Z,24.16
2018-07-02T13:53:01.355Z,24.31
2018-07-02T13:55:29.997Z,24.47
2018-07-02T13:57:58.546Z,24.49
2018-07-02T14:00:27.310Z,24.15
2018-07-02T14:02:56.009Z,24.28
2018-07-02T14:05:24.815Z,24.31
2018-07-02T14:07:53.888Z,24.23
2018-07-02T14:10:22.644Z,24.51
2018-07-02T14:12:51.247Z,24.66
2018-07-02T14:15:19.944Z,24.76
2018-07-02T14:17:48.759Z,24.74
2018-07-02T14:20:17.423Z,24.51
2018-07-02T14:22:46.208Z,24.39
2018-07-02T14:25:14.854Z,24.37
2018-07-02T14:27:43.377Z,24.36
2018-07-02T14:30:12.048Z,24.22
2018-07-02T14:32:40.838Z,24.28
2018-07-02T14:35:09.494Z,24.24
2018-07-02T14:37:38.009Z,24.46
2018-07-02T14:40:06.720Z,24.57
2018-07-02T14:42:35.291Z,24.59
2018-07-02T14:45:04.004Z,24.67
2018-07-02T14:47:32.423Z,24.70
2018-07-02T14:50:00.965Z,24.90
2018-07-02T14:52:29.465Z,24.72
2018-07-02T14:54:58.062Z,24.84
2018-07-02T14:57:26.586Z,24.97
2018-07-02T14:59:55.124Z,24.74
2018-07-02T15:02:23.674Z,24.80
2018-07-02T15:04:52.232Z,24.90
2018-07-02T15:07:20.995Z,24.91
2018-07-02T15:09:49.622Z,25.07
2018-07-02T15:12:18.186Z,24.69
2018-07-02T15:14:46.702Z,24.58
2018-07-02T15:17:15.283Z,24.66
2018-07-02T15:19:43.805Z,24.70
2018-07-02T15:22:12.345Z,24.68
2018-07-02T15:24:40.877Z,24.76
2018-07-02T15:27:09.424Z,24.82
2018-07-02T15:29:37.949Z,24.90
2018-07-02T15:32:06.492Z,24.99
2018-07-02T15:34:35.023Z,24.97
2018-07-02T15:37:03.595Z,24.89
2018-07-02T15:39:32.190Z,24.73
2018-07-02T15:42:00.700Z,24.70
2018-07-02T15:44:29.210Z,24.76
2018-07-02T15:46:57.799Z,24.98
2018-07-02T15:49:26.339Z,25.06
2018-07-02T15:51:54.893Z,24.92
2018-07-02T15:54:23.437Z,24.70
2018-07-02T15:56:51.994Z,24.86
2018-07-02T15:59:20.509Z,24.95
2018-07-02T16:01:49.133Z,24.91
2018-07-02T16:04:17.779Z,24.82
2018-07-02T16:06:46.299Z,24.73
2018-07-02T16:09:14.834Z,24.68
2018-07-02T16:11:43.492Z,24.63
2018-07-02T16:14:12.033Z,24.79
2018-07-02T16:16:40.574Z,24.87
2018-07-02T16:19:09.130Z,24.98
2018-07-02T16:21:37.689Z,24.99
2018-07-02T16:24:07.551Z,24.95
2018-07-02T16:26:36.068Z,25.01
2018-07-02T16:29:04.629Z,25.09
2018-07-02T16:31:33.294Z,24.86
2018-07-02T16:34:01.850Z,24.85
2018-07-02T16:36:30.489Z,24.93
2018-07-02T16:38:59.088Z,24.90
2018-07-02T16:41:27.627Z,24.87
2018-07-02T16:43:56.150Z,24.93
2018-07-02T16:46:24.695Z,24.80
2018-07-02T16:48:53.205Z,24.69
2018-07-02T16:51:21.725Z,24.60
2018-07-02T16:53:50.258Z,24.62
2018-07-02T16:56:18.773Z,24.68
2018-07-02T16:58:47.312Z,24.73
2018-07-02T17:01:15.841Z,24.58
2018-07-02T17:03:44.351Z,24.66
2018-07-02T17:06:12.947Z,24.60
2018-07-02T17:08:41.455Z,24.54
2018-07-02T17:11:09.975Z,24.47
2018-07-02T17:13:38.499Z,24.50
2018-07-02T17:16:07.055Z,24.53
2018-07-02T17:18:35.614Z,24.52
2018-07-02T17:21:04.151Z,24.38
2018-07-02T17:23:32.704Z,24.35
2018-07-02T17:26:01.278Z,24.31
2018-07-02T17:28:29.857Z,24.24
2018-07-02T17:30:58.409Z,24.24
2018-07-02T17:33:27.382Z,24.21
2018-07-02T17:35:55.918Z,24.12
2018-07-02T17:38:24.501Z,24.09
2018-07-02T17:40:53.025Z,23.98
2018-07-02T17:43:21.589Z,23.95
2018-07-02T17:45:50.176Z,24.02
2018-07-02T17:48:18.713Z,23.94
2018-07-02T17:50:47.270Z,23.92
2018-07-02T17:53:15.822Z,23.90
2018-07-02T17:55:44.375Z,23.82
2018-07-02T17:58:12.883Z,23.67
2018-07-02T18:00:41.493Z,23.60
2018-07-02T18:03:10.023Z,23.56
2018-07-02T18:05:38.563Z,23.50
2018-07-02T18:08:07.131Z,23.52
2018-07-02T18:10:35.699Z,23.42
2018-07-02T18:13:04.190Z,23.31
2018-07-02T18:15:32.810Z,23.25
2018-07-02T18:18:01.359Z,23.20
2018-07-02T18:20:29.883Z,23.06
2018-07-02T18:22:58.451Z,22.96
2018-07-02T18:25:26.954Z,22.91
2018-07-02T18:27:55.511Z,22.83
2018-07-02T18:30:24.077Z,22.72
2018-07-02T18:32:52.595Z,22.59
2018-07-02T18:35:21.106Z,22.52
2018-07-02T18:37:49.692Z,22.44
2018-07-02T18:40:18.210Z,22.32
2018-07-02T18:42:46.713Z,22.21
2018-07-02T18:45:15.280Z,22.12
2018-07-02T18:47:43.817Z,22.01
2018-07-02T18:50:12.318Z,21.90
2018-07-02T18:52:40.911Z,21.76
2018-07-02T18:55:09.439Z,21.66
2018-07-02T18:57:37.987Z,21.54
2018-07-02T19:00:06.972Z,21.50
2018-07-02T19:02:35.537Z,21.48
2018-07-02T19:05:04.388Z,21.37
2018-07-02T19:07:32.984Z,21.37
2018-07-02T19:10:01.574Z,21.27
2018-07-02T19:12:30.073Z,21.12
2018-07-02T19:14:58.593Z,20.94
2018-07-02T19:17:27.199Z,20.77
2018-07-02T19:19:55.741Z,20.60
2018-07-02T19:22:24.261Z,20.48
2018-07-02T19:24:52.762Z,20.37
2018-07-02T19:27:21.306Z,20.28
2018-07-02T19:29:49.920Z,20.15
2018-07-02T19:32:18.477Z,20.06
2018-07-02T19:34:47.025Z,19.97
2018-07-02T19:37:15.557Z,19.87
2018-07-02T19:39:44.103Z,19.76
2018-07-02T19:42:12.644Z,19.64
2018-07-02T19:44:41.218Z,19.55
2018-07-02T19:47:10.213Z,19.51
2018-07-02T19:49:38.705Z,19.47
2018-07-02T19:52:07.279Z,19.42
2018-07-02T19:54:37.523Z,19.29
2018-07-02T19:57:06.328Z,19.12
2018-07-02T19:59:34.854Z,19.00
2018-07-02T20:02:03.362Z,18.86
2018-07-02T20:04:32.003Z,18.77
2018-07-02T20:07:00.543Z,18.69
2018-07-02T20:09:29.177Z,18.58
2018-07-02T20:11:57.705Z,18.47
2018-07-02T20:14:27.005Z,18.38
2018-07-02T20:16:55.553Z,18.27
2018-07-02T20:19:24.125Z,18.18
2018-07-02T20:21:52.656Z,18.08
2018-07-02T20:24:21.296Z,17.93
2018-07-02T20:26:50.488Z,17.82
2018-07-02T20:29:19.154Z,17.71
2018-07-02T20:31:47.818Z,17.65
2018-07-02T20:34:16.395Z,17.59
2018-07-02T20:36:45.023Z,17.50
2018-07-02T20:39:13.589Z,17.44
2018-07-02T20:41:42.186Z,17.41
2018-07-02T20:44:10.723Z,17.39
2018-07-02T20:46:39.265Z,17.12
2018-07-02T20:49:07.801Z,17.27
2018-07-02T20:51:36.529Z,17.17
2018-07-02T20:54:05.366Z,17.12
2018-07-02T20:56:34.289Z,17.04
2018-07-02T20:59:03.113Z,16.98
2018-07-02T21:01:32.198Z,16.94
2018-07-02T21:04:00.984Z,16.76
2018-07-02T21:06:29.866Z,16.45
2018-07-02T21:08:58.562Z,16.31
2018-07-02T21:11:27.439Z,16.34
2018-07-02T21:13:56.249Z,16.44
2018-07-02T21:16:25.097Z,16.48
2018-07-02T21:18:53.914Z,16.37
2018-07-02T21:21:22.749Z,16.28
2018-07-02T21:23:51.434Z,16.20
2018-07-02T21:26:20.262Z,16.18
2018-07-02T21:28:49.013Z,16.15
2018-07-02T21:31:17.676Z,16.08
2018-07-02T21:33:46.740Z,15.95
2018-07-02T21:36:16.070Z,15.70
2018-07-02T21:38:45.113Z,15.64
2018-07-02T21:41:13.927Z,15.56
2018-07-02T21:43:43.153Z,15.53
2018-07-02T21:46:11.893Z,15.49
2018-07-02T21:48:40.523Z,15.46
2018-07-02T21:51:09.221Z,15.40
2018-07-02T21:53:37.865Z,15.15
2018-07-02T21:56:06.852Z,15.13
2018-07-02T21:58:35.510Z,15.13
2018-07-02T22:01:04.358Z,15.08
2018-07-02T22:03:33.279Z,15.01
2018-07-02T22:06:01.999Z,14.96
2018-07-02T22:08:30.848Z,14.86
2018-07-02T22:10:59.763Z,14.81
2018-07-02T22:13:28.448Z,14.76
2018-07-02T22:15:57.088Z,14.72
2018-07-02T22:18:25.971Z,14.65
2018-07-02T22:20:54.920Z,14.63
2018-07-02T22:23:23.543Z,14.60
2018-07-02T22:25:52.219Z,14.54
2018-07-02T22:28:21.266Z,14.45
2018-07-02T22:30:49.947Z,14.37
2018-07-02T22:33:18.781Z,14.41
2018-07-02T22:35:47.591Z,14.40
2018-07-02T22:38:16.149Z,14.23
2018-07-02T22:40:44.898Z,14.16
2018-07-02T22:43:14.766Z,14.14
2018-07-02T22:45:43.701Z,14.08
2018-07-02T22:48:12.445Z,14.05
2018-07-02T22:50:41.597Z,14.00
2018-07-02T22:53:10.201Z,13.97
2018-07-02T22:55:49.962Z,13.98
2018-07-02T22:58:18.857Z,13.94
2018-07-02T23:00:47.475Z,13.92
2018-07-02T23:03:16.218Z,13.91
2018-07-02T23:05:45.000Z,13.87
2018-07-02T23:08:14.599Z,13.82
2018-07-02T23:10:43.371Z,13.80
2018-07-02T23:13:12.019Z,13.77
2018-07-02T23:15:40.792Z,13.72
2018-07-02T23:18:09.659Z,13.65
2018-07-02T23:20:38.317Z,13.55
2018-07-02T23:23:07.093Z,13.47
2018-07-02T23:25:35.766Z,13.43
2018-07-02T23:28:05.028Z,13.38
2018-07-02T23:30:34.174Z,13.40
2018-07-02T23:33:02.914Z,13.35
2018-07-02T23:35:31.683Z,13.30
2018-07-02T23:38:00.362Z,13.23
2018-07-02T23:40:29.137Z,13.19
2018-07-02T23:42:57.849Z,13.15
2018-07-02T23:45:26.508Z,13.08
2018-07-02T23:47:55.507Z,13.03
2018-07-02T23:50:24.182Z,12.95
2018-07-02T23:52:52.901Z,12.93
2018-07-02T23:55:21.505Z,13.06
2018-07-02T23:57:50.211Z,13.04
